Terminal Aerodrome Forecast
Issued by NWS Tulsa, OK

Home | Current Version | Previous Version | Text Only | Print | Product List | Glossary On
Versions: 1 2 3 4 5 6 7 8 9 10 11 12 13 14 15
576
FTUS44 KTSA 261120
TAFFSM
TAF
KFSM 261120Z 2612/2712 04003KT P6SM SCT250
     FM261600 14006KT P6SM SCT050 BKN250
     FM270200 12003KT P6SM BKN250=

USA.gov is the U.S. government's official web portal to all federal, state and local government web resources and services.